sensor_id;sensor_type;location;lat;lon;timestamp;P1;durP1;ratioP1;P2;durP2;ratioP2
5734;SDS011;2892;47.592;7.688;2024-03-06T00:00:21;3.23;;;1.10;;
5734;SDS011;2892;47.592;7.688;2024-03-06T00:02:46;1.10;;;1.00;;
5734;SDS011;2892;47.592;7.688;2024-03-06T00:05:12;2.23;;;1.20;;
5734;SDS011;2892;47.592;7.688;2024-03-06T00:07:37;2.60;;;1.10;;
5734;SDS011;2892;47.592;7.688;2024-03-06T00:10:03;1.10;;;0.80;;
5734;SDS011;2892;47.592;7.688;2024-03-06T00:12:29;2.07;;;1.20;;
5734;SDS011;2892;47.592;7.688;2024-03-06T00:14:54;1.40;;;1.17;;
5734;SDS011;2892;47.592;7.688;2024-03-06T00:17:19;1.43;;;1.00;;
5734;SDS011;2892;47.592;7.688;2024-03-06T00:19:45;2.00;;;1.17;;
5734;SDS011;2892;47.592;7.688;2024-03-06T00:22:10;3.87;;;1.37;;
5734;SDS011;2892;47.592;7.688;2024-03-06T00:24:36;1.10;;;0.90;;
5734;SDS011;2892;47.592;7.688;2024-03-06T00:27:01;6.53;;;0.90;;
5734;SDS011;2892;47.592;7.688;2024-03-06T00:29:27;3.63;;;1.30;;
5734;SDS011;2892;47.592;7.688;2024-03-06T00:31:52;0.73;;;0.70;;
5734;SDS011;2892;47.592;7.688;2024-03-06T00:34:18;2.13;;;0.93;;
5734;SDS011;2892;47.592;7.688;2024-03-06T00:36:43;4.20;;;1.53;;
5734;SDS011;2892;47.592;7.688;2024-03-06T00:39:09;1.90;;;1.40;;
5734;SDS011;2892;47.592;7.688;2024-03-06T00:41:35;3.73;;;1.37;;
5734;SDS011;2892;47.592;7.688;2024-03-06T00:44:01;5.13;;;1.10;;
5734;SDS011;2892;47.592;7.688;2024-03-06T00:46:27;2.20;;;1.20;;
5734;SDS011;2892;47.592;7.688;2024-03-06T00:48:52;2.47;;;0.97;;
5734;SDS011;2892;47.592;7.688;2024-03-06T00:51:18;1.23;;;1.13;;
5734;SDS011;2892;47.592;7.688;2024-03-06T00:53:44;1.33;;;1.00;;
5734;SDS011;2892;47.592;7.688;2024-03-06T00:56:09;1.10;;;1.00;;
5734;SDS011;2892;47.592;7.688;2024-03-06T00:58:35;3.80;;;1.27;;
5734;SDS011;2892;47.592;7.688;2024-03-06T01:01:00;1.20;;;1.00;;
5734;SDS011;2892;47.592;7.688;2024-03-06T01:03:26;1.20;;;1.10;;
5734;SDS011;2892;47.592;7.688;2024-03-06T01:05:51;2.10;;;1.20;;
5734;SDS011;2892;47.592;7.688;2024-03-06T01:08:17;0.90;;;0.90;;
5734;SDS011;2892;47.592;7.688;2024-03-06T01:10:43;2.83;;;1.07;;
5734;SDS011;2892;47.592;7.688;2024-03-06T01:13:08;2.67;;;1.40;;
5734;SDS011;2892;47.592;7.688;2024-03-06T01:15:34;5.67;;;0.90;;
5734;SDS011;2892;47.592;7.688;2024-03-06T01:17:59;4.00;;;1.43;;
5734;SDS011;2892;47.592;7.688;2024-03-06T01:20:25;1.40;;;1.20;;
5734;SDS011;2892;47.592;7.688;2024-03-06T01:22:50;2.60;;;1.40;;
5734;SDS011;2892;47.592;7.688;2024-03-06T01:25:16;1.40;;;0.80;;
5734;SDS011;2892;47.592;7.688;2024-03-06T01:27:41;1.23;;;1.00;;
5734;SDS011;2892;47.592;7.688;2024-03-06T01:30:07;1.07;;;0.97;;
5734;SDS011;2892;47.592;7.688;2024-03-06T01:32:33;1.93;;;0.93;;
5734;SDS011;2892;47.592;7.688;2024-03-06T01:34:58;1.10;;;1.00;;
5734;SDS011;2892;47.592;7.688;2024-03-06T01:37:24;2.50;;;1.90;;
5734;SDS011;2892;47.592;7.688;2024-03-06T01:39:49;1.87;;;1.53;;
5734;SDS011;2892;47.592;7.688;2024-03-06T01:42:16;1.07;;;0.90;;
5734;SDS011;2892;47.592;7.688;2024-03-06T01:44:42;1.03;;;0.93;;
5734;SDS011;2892;47.592;7.688;2024-03-06T01:47:07;1.20;;;0.97;;
5734;SDS011;2892;47.592;7.688;2024-03-06T01:49:33;1.17;;;1.00;;
5734;SDS011;2892;47.592;7.688;2024-03-06T01:51:58;1.30;;;1.20;;
5734;SDS011;2892;47.592;7.688;2024-03-06T01:54:25;2.33;;;1.20;;
5734;SDS011;2892;47.592;7.688;2024-03-06T01:56:51;1.00;;;0.90;;
5734;SDS011;2892;47.592;7.688;2024-03-06T01:59:18;1.93;;;1.20;;
5734;SDS011;2892;47.592;7.688;2024-03-06T02:01:46;3.80;;;1.00;;
5734;SDS011;2892;47.592;7.688;2024-03-06T02:04:13;1.17;;;1.10;;
5734;SDS011;2892;47.592;7.688;2024-03-06T02:06:40;1.73;;;1.10;;
5734;SDS011;2892;47.592;7.688;2024-03-06T02:09:05;1.10;;;1.00;;
5734;SDS011;2892;47.592;7.688;2024-03-06T02:11:32;1.30;;;0.90;;
5734;SDS011;2892;47.592;7.688;2024-03-06T02:13:58;1.20;;;1.10;;
5734;SDS011;2892;47.592;7.688;2024-03-06T02:16:24;2.30;;;1.17;;
5734;SDS011;2892;47.592;7.688;2024-03-06T02:18:53;1.43;;;1.30;;
5734;SDS011;2892;47.592;7.688;2024-03-06T02:21:21;3.40;;;1.40;;
5734;SDS011;2892;47.592;7.688;2024-03-06T02:23:47;1.53;;;1.00;;
5734;SDS011;2892;47.592;7.688;2024-03-06T02:26:13;2.27;;;1.43;;
5734;SDS011;2892;47.592;7.688;2024-03-06T02:28:38;1.23;;;1.10;;
5734;SDS011;2892;47.592;7.688;2024-03-06T02:31:04;2.40;;;1.40;;
5734;SDS011;2892;47.592;7.688;2024-03-06T02:33:29;1.20;;;1.00;;
5734;SDS011;2892;47.592;7.688;2024-03-06T02:35:55;1.20;;;1.10;;
5734;SDS011;2892;47.592;7.688;2024-03-06T02:38:20;0.80;;;0.80;;
5734;SDS011;2892;47.592;7.688;2024-03-06T02:40:46;2.27;;;1.80;;
5734;SDS011;2892;47.592;7.688;2024-03-06T02:43:11;3.93;;;2.50;;
5734;SDS011;2892;47.592;7.688;2024-03-06T02:45:37;1.83;;;1.10;;
5734;SDS011;2892;47.592;7.688;2024-03-06T02:48:02;2.30;;;2.10;;
5734;SDS011;2892;47.592;7.688;2024-03-06T02:50:28;1.10;;;1.00;;
5734;SDS011;2892;47.592;7.688;2024-03-06T02:52:54;1.63;;;1.53;;
5734;SDS011;2892;47.592;7.688;2024-03-06T02:55:19;6.87;;;2.90;;
5734;SDS011;2892;47.592;7.688;2024-03-06T02:57:46;14.80;;;1.20;;
5734;SDS011;2892;47.592;7.688;2024-03-06T03:00:12;2.80;;;1.07;;
5734;SDS011;2892;47.592;7.688;2024-03-06T03:02:38;1.47;;;1.30;;
5734;SDS011;2892;47.592;7.688;2024-03-06T03:05:04;2.97;;;1.93;;
5734;SDS011;2892;47.592;7.688;2024-03-06T03:07:30;4.20;;;1.50;;
5734;SDS011;2892;47.592;7.688;2024-03-06T03:09:55;1.30;;;1.20;;
5734;SDS011;2892;47.592;7.688;2024-03-06T03:12:21;1.30;;;1.20;;
5734;SDS011;2892;47.592;7.688;2024-03-06T03:14:46;2.40;;;1.73;;
5734;SDS011;2892;47.592;7.688;2024-03-06T03:17:12;2.20;;;1.27;;
5734;SDS011;2892;47.592;7.688;2024-03-06T03:19:37;1.00;;;0.90;;
5734;SDS011;2892;47.592;7.688;2024-03-06T03:22:03;1.60;;;1.13;;
5734;SDS011;2892;47.592;7.688;2024-03-06T03:24:28;2.90;;;1.37;;
5734;SDS011;2892;47.592;7.688;2024-03-06T03:26:54;1.70;;;1.30;;
5734;SDS011;2892;47.592;7.688;2024-03-06T03:29:19;1.13;;;1.03;;
5734;SDS011;2892;47.592;7.688;2024-03-06T03:31:45;1.00;;;1.00;;
5734;SDS011;2892;47.592;7.688;2024-03-06T03:34:10;1.50;;;1.40;;
5734;SDS011;2892;47.592;7.688;2024-03-06T03:36:39;2.90;;;1.20;;
5734;SDS011;2892;47.592;7.688;2024-03-06T03:39:06;1.30;;;1.20;;
5734;SDS011;2892;47.592;7.688;2024-03-06T03:41:31;1.83;;;1.40;;
5734;SDS011;2892;47.592;7.688;2024-03-06T03:43:57;2.33;;;1.53;;
5734;SDS011;2892;47.592;7.688;2024-03-06T03:46:22;1.33;;;1.23;;
5734;SDS011;2892;47.592;7.688;2024-03-06T03:48:48;7.30;;;1.40;;
5734;SDS011;2892;47.592;7.688;2024-03-06T03:51:13;1.70;;;1.33;;
5734;SDS011;2892;47.592;7.688;2024-03-06T03:53:39;1.27;;;1.00;;
5734;SDS011;2892;47.592;7.688;2024-03-06T03:56:04;1.30;;;1.10;;
5734;SDS011;2892;47.592;7.688;2024-03-06T03:58:30;1.17;;;0.97;;
5734;SDS011;2892;47.592;7.688;2024-03-06T04:00:55;3.43;;;1.53;;
5734;SDS011;2892;47.592;7.688;2024-03-06T04:03:21;2.80;;;1.43;;
5734;SDS011;2892;47.592;7.688;2024-03-06T04:05:47;1.37;;;1.27;;
5734;SDS011;2892;47.592;7.688;2024-03-06T04:08:13;3.70;;;1.73;;
5734;SDS011;2892;47.592;7.688;2024-03-06T04:10:39;4.83;;;2.17;;
5734;SDS011;2892;47.592;7.688;2024-03-06T04:13:04;2.33;;;1.70;;
5734;SDS011;2892;47.592;7.688;2024-03-06T04:15:30;2.13;;;1.43;;
5734;SDS011;2892;47.592;7.688;2024-03-06T04:17:55;2.43;;;1.50;;
5734;SDS011;2892;47.592;7.688;2024-03-06T04:20:21;2.13;;;2.00;;
5734;SDS011;2892;47.592;7.688;2024-03-06T04:22:46;2.70;;;2.17;;
5734;SDS011;2892;47.592;7.688;2024-03-06T04:25:12;12.77;;;1.40;;
5734;SDS011;2892;47.592;7.688;2024-03-06T04:27:37;2.93;;;1.77;;
5734;SDS011;2892;47.592;7.688;2024-03-06T04:30:03;1.70;;;1.43;;
5734;SDS011;2892;47.592;7.688;2024-03-06T04:32:29;2.20;;;1.60;;
5734;SDS011;2892;47.592;7.688;2024-03-06T04:34:55;6.67;;;3.20;;
5734;SDS011;2892;47.592;7.688;2024-03-06T04:37:20;2.37;;;2.17;;
5734;SDS011;2892;47.592;7.688;2024-03-06T04:39:46;1.70;;;1.60;;
5734;SDS011;2892;47.592;7.688;2024-03-06T04:42:11;2.30;;;2.10;;
5734;SDS011;2892;47.592;7.688;2024-03-06T04:44:37;2.23;;;2.03;;
5734;SDS011;2892;47.592;7.688;2024-03-06T04:47:02;2.47;;;1.97;;
5734;SDS011;2892;47.592;7.688;2024-03-06T04:49:28;2.37;;;1.90;;
5734;SDS011;2892;47.592;7.688;2024-03-06T04:51:57;2.20;;;1.80;;
5734;SDS011;2892;47.592;7.688;2024-03-06T04:54:22;5.90;;;2.03;;
5734;SDS011;2892;47.592;7.688;2024-03-06T04:56:48;1.60;;;1.40;;
5734;SDS011;2892;47.592;7.688;2024-03-06T04:59:13;4.60;;;2.33;;
5734;SDS011;2892;47.592;7.688;2024-03-06T05:01:39;2.70;;;1.80;;
5734;SDS011;2892;47.592;7.688;2024-03-06T05:04:04;1.50;;;1.40;;
5734;SDS011;2892;47.592;7.688;2024-03-06T05:06:30;2.90;;;1.80;;
5734;SDS011;2892;47.592;7.688;2024-03-06T05:08:55;2.83;;;1.80;;
5734;SDS011;2892;47.592;7.688;2024-03-06T05:11:20;2.10;;;2.00;;
5734;SDS011;2892;47.592;7.688;2024-03-06T05:13:46;3.20;;;2.07;;
5734;SDS011;2892;47.592;7.688;2024-03-06T05:16:11;2.30;;;2.00;;
5734;SDS011;2892;47.592;7.688;2024-03-06T05:18:37;2.43;;;2.17;;
5734;SDS011;2892;47.592;7.688;2024-03-06T05:21:02;2.90;;;2.10;;
5734;SDS011;2892;47.592;7.688;2024-03-06T05:23:28;2.80;;;2.47;;
5734;SDS011;2892;47.592;7.688;2024-03-06T05:25:54;2.40;;;2.20;;
5734;SDS011;2892;47.592;7.688;2024-03-06T05:28:19;6.70;;;2.50;;
5734;SDS011;2892;47.592;7.688;2024-03-06T05:30:45;5.70;;;2.23;;
5734;SDS011;2892;47.592;7.688;2024-03-06T05:33:10;2.97;;;2.20;;
5734;SDS011;2892;47.592;7.688;2024-03-06T05:35:36;2.53;;;1.80;;
5734;SDS011;2892;47.592;7.688;2024-03-06T05:38:01;3.93;;;2.20;;
5734;SDS011;2892;47.592;7.688;2024-03-06T05:40:26;2.67;;;1.83;;
5734;SDS011;2892;47.592;7.688;2024-03-06T05:42:52;1.83;;;1.60;;
5734;SDS011;2892;47.592;7.688;2024-03-06T05:45:17;2.93;;;2.20;;
5734;SDS011;2892;47.592;7.688;2024-03-06T05:47:43;5.47;;;2.13;;
5734;SDS011;2892;47.592;7.688;2024-03-06T05:50:08;1.63;;;1.50;;
5734;SDS011;2892;47.592;7.688;2024-03-06T05:52:34;2.57;;;1.80;;
5734;SDS011;2892;47.592;7.688;2024-03-06T05:54:59;3.07;;;2.33;;
5734;SDS011;2892;47.592;7.688;2024-03-06T05:57:25;3.53;;;2.40;;
5734;SDS011;2892;47.592;7.688;2024-03-06T05:59:50;4.07;;;2.73;;
5734;SDS011;2892;47.592;7.688;2024-03-06T06:02:16;2.70;;;2.50;;
5734;SDS011;2892;47.592;7.688;2024-03-06T06:04:42;4.90;;;3.00;;
5734;SDS011;2892;47.592;7.688;2024-03-06T06:07:07;2.83;;;2.53;;
5734;SDS011;2892;47.592;7.688;2024-03-06T06:09:33;2.37;;;2.10;;
5734;SDS011;2892;47.592;7.688;2024-03-06T06:11:58;2.87;;;2.60;;
5734;SDS011;2892;47.592;7.688;2024-03-06T06:14:24;4.33;;;2.80;;
5734;SDS011;2892;47.592;7.688;2024-03-06T06:16:50;2.87;;;2.60;;
5734;SDS011;2892;47.592;7.688;2024-03-06T06:19:15;3.40;;;2.40;;
5734;SDS011;2892;47.592;7.688;2024-03-06T06:21:41;2.40;;;1.80;;
5734;SDS011;2892;47.592;7.688;2024-03-06T06:24:06;3.70;;;3.00;;
5734;SDS011;2892;47.592;7.688;2024-03-06T06:26:32;3.90;;;2.30;;
5734;SDS011;2892;47.592;7.688;2024-03-06T06:28:58;2.10;;;1.90;;
5734;SDS011;2892;47.592;7.688;2024-03-06T06:31:23;3.73;;;3.10;;
5734;SDS011;2892;47.592;7.688;2024-03-06T06:33:49;3.77;;;3.43;;
5734;SDS011;2892;47.592;7.688;2024-03-06T06:36:14;4.80;;;3.20;;
5734;SDS011;2892;47.592;7.688;2024-03-06T06:38:40;5.30;;;3.77;;
5734;SDS011;2892;47.592;7.688;2024-03-06T06:41:05;6.40;;;4.40;;
5734;SDS011;2892;47.592;7.688;2024-03-06T06:43:31;4.47;;;3.90;;
5734;SDS011;2892;47.592;7.688;2024-03-06T06:45:56;6.37;;;4.37;;
5734;SDS011;2892;47.592;7.688;2024-03-06T06:48:22;4.97;;;3.90;;
5734;SDS011;2892;47.592;7.688;2024-03-06T06:50:47;11.23;;;3.03;;
5734;SDS011;2892;47.592;7.688;2024-03-06T06:53:13;4.40;;;3.50;;
5734;SDS011;2892;47.592;7.688;2024-03-06T06:55:39;12.37;;;4.00;;
5734;SDS011;2892;47.592;7.688;2024-03-06T06:58:04;5.10;;;3.60;;
5734;SDS011;2892;47.592;7.688;2024-03-06T07:00:30;4.00;;;3.57;;
5734;SDS011;2892;47.592;7.688;2024-03-06T07:02:55;4.77;;;3.90;;
5734;SDS011;2892;47.592;7.688;2024-03-06T07:05:21;4.87;;;3.77;;
5734;SDS011;2892;47.592;7.688;2024-03-06T07:07:46;8.73;;;3.47;;
5734;SDS011;2892;47.592;7.688;2024-03-06T07:10:12;7.87;;;4.00;;
5734;SDS011;2892;47.592;7.688;2024-03-06T07:12:37;7.90;;;4.37;;
5734;SDS011;2892;47.592;7.688;2024-03-06T07:15:03;6.83;;;4.40;;
5734;SDS011;2892;47.592;7.688;2024-03-06T07:17:29;6.30;;;3.90;;
5734;SDS011;2892;47.592;7.688;2024-03-06T07:19:54;8.90;;;3.80;;
5734;SDS011;2892;47.592;7.688;2024-03-06T07:22:20;3.33;;;2.93;;
5734;SDS011;2892;47.592;7.688;2024-03-06T07:24:45;5.30;;;3.60;;
5734;SDS011;2892;47.592;7.688;2024-03-06T07:27:11;4.37;;;3.80;;
5734;SDS011;2892;47.592;7.688;2024-03-06T07:29:36;4.43;;;2.90;;
5734;SDS011;2892;47.592;7.688;2024-03-06T07:32:02;4.40;;;3.67;;
5734;SDS011;2892;47.592;7.688;2024-03-06T07:34:28;6.17;;;4.27;;
5734;SDS011;2892;47.592;7.688;2024-03-06T07:36:53;3.57;;;3.23;;
5734;SDS011;2892;47.592;7.688;2024-03-06T07:39:19;5.63;;;3.10;;
5734;SDS011;2892;47.592;7.688;2024-03-06T07:41:45;7.20;;;3.30;;
5734;SDS011;2892;47.592;7.688;2024-03-06T07:44:10;7.53;;;3.57;;
5734;SDS011;2892;47.592;7.688;2024-03-06T07:46:36;5.83;;;4.27;;
5734;SDS011;2892;47.592;7.688;2024-03-06T07:49:02;5.47;;;3.83;;
5734;SDS011;2892;47.592;7.688;2024-03-06T07:51:28;5.93;;;3.63;;
5734;SDS011;2892;47.592;7.688;2024-03-06T07:53:54;7.10;;;3.97;;
5734;SDS011;2892;47.592;7.688;2024-03-06T07:56:20;6.57;;;4.27;;
5734;SDS011;2892;47.592;7.688;2024-03-06T07:58:45;5.00;;;3.63;;
5734;SDS011;2892;47.592;7.688;2024-03-06T08:01:10;3.43;;;3.10;;
5734;SDS011;2892;47.592;7.688;2024-03-06T08:03:38;5.60;;;4.20;;
5734;SDS011;2892;47.592;7.688;2024-03-06T08:06:04;5.73;;;4.20;;
5734;SDS011;2892;47.592;7.688;2024-03-06T08:08:30;7.50;;;3.53;;
5734;SDS011;2892;47.592;7.688;2024-03-06T08:10:55;7.07;;;4.13;;
5734;SDS011;2892;47.592;7.688;2024-03-06T08:13:21;4.50;;;3.97;;
5734;SDS011;2892;47.592;7.688;2024-03-06T08:15:46;5.70;;;4.53;;
5734;SDS011;2892;47.592;7.688;2024-03-06T08:18:12;5.67;;;4.77;;
5734;SDS011;2892;47.592;7.688;2024-03-06T08:20:38;9.77;;;3.67;;
5734;SDS011;2892;47.592;7.688;2024-03-06T08:23:03;7.23;;;4.73;;
5734;SDS011;2892;47.592;7.688;2024-03-06T08:25:29;8.00;;;4.33;;
5734;SDS011;2892;47.592;7.688;2024-03-06T08:27:54;5.80;;;4.10;;
5734;SDS011;2892;47.592;7.688;2024-03-06T08:30:20;8.53;;;4.27;;
5734;SDS011;2892;47.592;7.688;2024-03-06T08:32:45;7.60;;;3.83;;
5734;SDS011;2892;47.592;7.688;2024-03-06T08:35:11;10.57;;;4.80;;
5734;SDS011;2892;47.592;7.688;2024-03-06T08:37:37;4.80;;;3.70;;
5734;SDS011;2892;47.592;7.688;2024-03-06T08:40:04;4.23;;;3.73;;
5734;SDS011;2892;47.592;7.688;2024-03-06T08:42:30;5.40;;;4.10;;
5734;SDS011;2892;47.592;7.688;2024-03-06T08:44:55;4.50;;;3.33;;
5734;SDS011;2892;47.592;7.688;2024-03-06T08:47:21;8.03;;;4.17;;
5734;SDS011;2892;47.592;7.688;2024-03-06T08:49:46;4.83;;;4.10;;
5734;SDS011;2892;47.592;7.688;2024-03-06T08:52:12;4.40;;;3.70;;
5734;SDS011;2892;47.592;7.688;2024-03-06T08:54:39;7.70;;;5.20;;
5734;SDS011;2892;47.592;7.688;2024-03-06T08:57:05;6.97;;;4.00;;
5734;SDS011;2892;47.592;7.688;2024-03-06T08:59:30;6.50;;;3.93;;
5734;SDS011;2892;47.592;7.688;2024-03-06T09:01:56;5.57;;;3.60;;
5734;SDS011;2892;47.592;7.688;2024-03-06T09:04:22;5.23;;;4.07;;
5734;SDS011;2892;47.592;7.688;2024-03-06T09:06:47;7.57;;;4.67;;
5734;SDS011;2892;47.592;7.688;2024-03-06T09:09:13;5.10;;;3.50;;
5734;SDS011;2892;47.592;7.688;2024-03-06T09:11:38;11.23;;;3.80;;
5734;SDS011;2892;47.592;7.688;2024-03-06T09:14:04;5.37;;;3.57;;
5734;SDS011;2892;47.592;7.688;2024-03-06T09:16:29;7.13;;;4.03;;
5734;SDS011;2892;47.592;7.688;2024-03-06T09:18:55;4.60;;;3.27;;
5734;SDS011;2892;47.592;7.688;2024-03-06T09:21:20;4.40;;;3.93;;
5734;SDS011;2892;47.592;7.688;2024-03-06T09:23:46;6.70;;;4.60;;
5734;SDS011;2892;47.592;7.688;2024-03-06T09:26:11;6.03;;;3.17;;
5734;SDS011;2892;47.592;7.688;2024-03-06T09:28:38;5.80;;;4.07;;
5734;SDS011;2892;47.592;7.688;2024-03-06T09:31:04;6.80;;;4.20;;
5734;SDS011;2892;47.592;7.688;2024-03-06T09:33:29;4.17;;;3.53;;
5734;SDS011;2892;47.592;7.688;2024-03-06T09:35:55;6.40;;;3.77;;
5734;SDS011;2892;47.592;7.688;2024-03-06T09:38:20;4.20;;;3.60;;
5734;SDS011;2892;47.592;7.688;2024-03-06T09:40:46;5.67;;;4.30;;
5734;SDS011;2892;47.592;7.688;2024-03-06T09:43:11;9.43;;;5.43;;
5734;SDS011;2892;47.592;7.688;2024-03-06T09:45:37;5.80;;;4.27;;
5734;SDS011;2892;47.592;7.688;2024-03-06T09:48:02;4.60;;;3.67;;
5734;SDS011;2892;47.592;7.688;2024-03-06T09:50:28;4.30;;;3.90;;
5734;SDS011;2892;47.592;7.688;2024-03-06T09:52:57;11.03;;;4.40;;
5734;SDS011;2892;47.592;7.688;2024-03-06T09:55:23;6.30;;;5.53;;
5734;SDS011;2892;47.592;7.688;2024-03-06T09:57:49;4.93;;;3.77;;
5734;SDS011;2892;47.592;7.688;2024-03-06T10:00:15;4.93;;;3.83;;
5734;SDS011;2892;47.592;7.688;2024-03-06T10:02:45;7.27;;;4.80;;
5734;SDS011;2892;47.592;7.688;2024-03-06T10:05:21;5.13;;;3.17;;
5734;SDS011;2892;47.592;7.688;2024-03-06T10:07:48;3.70;;;3.30;;
5734;SDS011;2892;47.592;7.688;2024-03-06T10:10:14;7.97;;;4.50;;
5734;SDS011;2892;47.592;7.688;2024-03-06T10:12:40;8.70;;;6.00;;
5734;SDS011;2892;47.592;7.688;2024-03-06T10:15:05;6.30;;;3.80;;
5734;SDS011;2892;47.592;7.688;2024-03-06T10:17:31;3.43;;;3.13;;
5734;SDS011;2892;47.592;7.688;2024-03-06T10:19:57;5.17;;;2.80;;
5734;SDS011;2892;47.592;7.688;2024-03-06T10:22:22;4.27;;;3.57;;
5734;SDS011;2892;47.592;7.688;2024-03-06T10:24:48;4.20;;;3.33;;
5734;SDS011;2892;47.592;7.688;2024-03-06T10:27:15;5.90;;;3.77;;
5734;SDS011;2892;47.592;7.688;2024-03-06T10:29:41;5.03;;;3.90;;
5734;SDS011;2892;47.592;7.688;2024-03-06T10:32:06;7.43;;;3.83;;
5734;SDS011;2892;47.592;7.688;2024-03-06T10:34:32;3.53;;;3.10;;
5734;SDS011;2892;47.592;7.688;2024-03-06T10:36:58;4.90;;;3.03;;
5734;SDS011;2892;47.592;7.688;2024-03-06T10:39:24;4.00;;;3.00;;
5734;SDS011;2892;47.592;7.688;2024-03-06T10:41:51;6.10;;;3.10;;
5734;SDS011;2892;47.592;7.688;2024-03-06T10:44:19;6.17;;;3.10;;
5734;SDS011;2892;47.592;7.688;2024-03-06T10:46:46;3.93;;;3.50;;
5734;SDS011;2892;47.592;7.688;2024-03-06T10:49:16;5.67;;;3.80;;
5734;SDS011;2892;47.592;7.688;2024-03-06T10:51:43;3.30;;;3.00;;
5734;SDS011;2892;47.592;7.688;2024-03-06T10:54:11;5.53;;;3.30;;
5734;SDS011;2892;47.592;7.688;2024-03-06T10:56:38;4.87;;;3.10;;
5734;SDS011;2892;47.592;7.688;2024-03-06T10:59:05;7.60;;;2.97;;
5734;SDS011;2892;47.592;7.688;2024-03-06T11:01:32;3.20;;;2.60;;
5734;SDS011;2892;47.592;7.688;2024-03-06T11:04:00;4.30;;;2.93;;
5734;SDS011;2892;47.592;7.688;2024-03-06T11:06:26;6.23;;;2.83;;
5734;SDS011;2892;47.592;7.688;2024-03-06T11:08:52;2.40;;;2.20;;
5734;SDS011;2892;47.592;7.688;2024-03-06T11:11:19;2.53;;;2.30;;
5734;SDS011;2892;47.592;7.688;2024-03-06T11:13:45;3.57;;;2.60;;
5734;SDS011;2892;47.592;7.688;2024-03-06T11:16:11;3.70;;;2.50;;
5734;SDS011;2892;47.592;7.688;2024-03-06T11:23:34;2.97;;;2.50;;
5734;SDS011;2892;47.592;7.688;2024-03-06T11:26:01;3.17;;;2.23;;
5734;SDS011;2892;47.592;7.688;2024-03-06T11:28:28;5.03;;;2.87;;
5734;SDS011;2892;47.592;7.688;2024-03-06T11:30:57;16.47;;;3.17;;
5734;SDS011;2892;47.592;7.688;2024-03-06T11:33:28;1.97;;;1.87;;
5734;SDS011;2892;47.592;7.688;2024-03-06T11:39:03;2.77;;;2.50;;
5734;SDS011;2892;47.592;7.688;2024-03-06T11:41:31;2.63;;;2.30;;
5734;SDS011;2892;47.592;7.688;2024-03-06T11:44:01;3.17;;;2.60;;
5734;SDS011;2892;47.592;7.688;2024-03-06T11:49:17;4.57;;;2.70;;
5734;SDS011;2892;47.592;7.688;2024-03-06T11:51:50;2.83;;;2.60;;
5734;SDS011;2892;47.592;7.688;2024-03-06T11:54:17;2.53;;;2.30;;
5734;SDS011;2892;47.592;7.688;2024-03-06T11:56:43;6.03;;;2.93;;
5734;SDS011;2892;47.592;7.688;2024-03-06T11:59:10;6.30;;;2.50;;
5734;SDS011;2892;47.592;7.688;2024-03-06T12:01:36;3.23;;;2.27;;
5734;SDS011;2892;47.592;7.688;2024-03-06T12:04:02;2.27;;;2.07;;
5734;SDS011;2892;47.592;7.688;2024-03-06T12:06:28;6.00;;;3.13;;
5734;SDS011;2892;47.592;7.688;2024-03-06T12:08:54;5.70;;;2.93;;
5734;SDS011;2892;47.592;7.688;2024-03-06T12:11:23;7.30;;;3.23;;
5734;SDS011;2892;47.592;7.688;2024-03-06T12:13:49;4.23;;;2.90;;
5734;SDS011;2892;47.592;7.688;2024-03-06T12:16:15;2.37;;;2.07;;
5734;SDS011;2892;47.592;7.688;2024-03-06T12:18:41;3.20;;;2.50;;
5734;SDS011;2892;47.592;7.688;2024-03-06T12:21:06;4.47;;;3.17;;
5734;SDS011;2892;47.592;7.688;2024-03-06T12:23:32;3.10;;;2.50;;
5734;SDS011;2892;47.592;7.688;2024-03-06T12:26:05;2.50;;;1.80;;
5734;SDS011;2892;47.592;7.688;2024-03-06T12:28:32;3.53;;;2.50;;
5734;SDS011;2892;47.592;7.688;2024-03-06T12:30:57;2.80;;;2.00;;
5734;SDS011;2892;47.592;7.688;2024-03-06T12:33:26;4.13;;;2.17;;
5734;SDS011;2892;47.592;7.688;2024-03-06T12:36:07;4.70;;;2.20;;
5734;SDS011;2892;47.592;7.688;2024-03-06T12:38:33;3.17;;;2.20;;
5734;SDS011;2892;47.592;7.688;2024-03-06T12:40:59;4.40;;;2.50;;
5734;SDS011;2892;47.592;7.688;2024-03-06T12:43:25;3.63;;;2.57;;
5734;SDS011;2892;47.592;7.688;2024-03-06T12:45:51;8.60;;;2.70;;
5734;SDS011;2892;47.592;7.688;2024-03-06T12:48:16;3.10;;;1.80;;
5734;SDS011;2892;47.592;7.688;2024-03-06T12:50:42;3.07;;;1.67;;
5734;SDS011;2892;47.592;7.688;2024-03-06T12:53:08;3.97;;;2.50;;
5734;SDS011;2892;47.592;7.688;2024-03-06T12:55:33;4.67;;;2.33;;
5734;SDS011;2892;47.592;7.688;2024-03-06T12:57:58;2.60;;;2.20;;
5734;SDS011;2892;47.592;7.688;2024-03-06T13:00:24;4.33;;;2.20;;
5734;SDS011;2892;47.592;7.688;2024-03-06T13:02:50;2.83;;;2.20;;
5734;SDS011;2892;47.592;7.688;2024-03-06T13:05:15;2.50;;;1.93;;
5734;SDS011;2892;47.592;7.688;2024-03-06T13:07:42;5.30;;;2.50;;
5734;SDS011;2892;47.592;7.688;2024-03-06T13:10:09;5.97;;;2.47;;
5734;SDS011;2892;47.592;7.688;2024-03-06T13:12:36;2.50;;;2.20;;
5734;SDS011;2892;47.592;7.688;2024-03-06T13:15:02;4.37;;;2.80;;
5734;SDS011;2892;47.592;7.688;2024-03-06T13:17:28;3.63;;;2.40;;
5734;SDS011;2892;47.592;7.688;2024-03-06T13:19:54;4.20;;;2.37;;
5734;SDS011;2892;47.592;7.688;2024-03-06T13:22:19;4.70;;;2.20;;
5734;SDS011;2892;47.592;7.688;2024-03-06T13:24:45;4.80;;;2.73;;
5734;SDS011;2892;47.592;7.688;2024-03-06T13:27:10;5.00;;;2.20;;
5734;SDS011;2892;47.592;7.688;2024-03-06T13:29:36;4.27;;;2.70;;
5734;SDS011;2892;47.592;7.688;2024-03-06T13:32:01;3.77;;;2.37;;
5734;SDS011;2892;47.592;7.688;2024-03-06T13:34:27;4.67;;;2.07;;
5734;SDS011;2892;47.592;7.688;2024-03-06T13:36:52;3.80;;;2.53;;
5734;SDS011;2892;47.592;7.688;2024-03-06T13:39:18;2.57;;;2.37;;
5734;SDS011;2892;47.592;7.688;2024-03-06T13:41:43;2.73;;;1.73;;
5734;SDS011;2892;47.592;7.688;2024-03-06T13:44:09;2.30;;;1.70;;
5734;SDS011;2892;47.592;7.688;2024-03-06T13:46:34;4.00;;;2.43;;
5734;SDS011;2892;47.592;7.688;2024-03-06T13:49:00;1.87;;;1.60;;
5734;SDS011;2892;47.592;7.688;2024-03-06T13:51:25;3.60;;;2.67;;
5734;SDS011;2892;47.592;7.688;2024-03-06T13:53:51;3.33;;;1.60;;
5734;SDS011;2892;47.592;7.688;2024-03-06T13:56:16;6.27;;;3.23;;
5734;SDS011;2892;47.592;7.688;2024-03-06T13:58:42;3.93;;;3.00;;
5734;SDS011;2892;47.592;7.688;2024-03-06T14:01:08;2.70;;;2.10;;
5734;SDS011;2892;47.592;7.688;2024-03-06T14:03:33;5.80;;;2.50;;
5734;SDS011;2892;47.592;7.688;2024-03-06T14:05:59;2.27;;;2.00;;
5734;SDS011;2892;47.592;7.688;2024-03-06T14:08:24;3.53;;;2.30;;
5734;SDS011;2892;47.592;7.688;2024-03-06T14:10:50;2.30;;;1.93;;
5734;SDS011;2892;47.592;7.688;2024-03-06T14:13:15;4.10;;;2.17;;
5734;SDS011;2892;47.592;7.688;2024-03-06T14:15:41;3.67;;;1.93;;
5734;SDS011;2892;47.592;7.688;2024-03-06T14:18:06;3.83;;;2.57;;
5734;SDS011;2892;47.592;7.688;2024-03-06T14:20:32;5.53;;;2.10;;
5734;SDS011;2892;47.592;7.688;2024-03-06T14:22:57;2.13;;;1.73;;
5734;SDS011;2892;47.592;7.688;2024-03-06T14:25:23;3.87;;;2.37;;
5734;SDS011;2892;47.592;7.688;2024-03-06T14:27:48;4.47;;;2.57;;
5734;SDS011;2892;47.592;7.688;2024-03-06T14:30:14;2.43;;;2.00;;
5734;SDS011;2892;47.592;7.688;2024-03-06T14:32:39;3.47;;;1.97;;
5734;SDS011;2892;47.592;7.688;2024-03-06T14:35:05;7.03;;;2.43;;
5734;SDS011;2892;47.592;7.688;2024-03-06T14:37:31;5.23;;;2.50;;
5734;SDS011;2892;47.592;7.688;2024-03-06T14:39:57;5.80;;;2.37;;
5734;SDS011;2892;47.592;7.688;2024-03-06T14:42:22;2.20;;;1.70;;
5734;SDS011;2892;47.592;7.688;2024-03-06T14:44:47;1.97;;;1.80;;
5734;SDS011;2892;47.592;7.688;2024-03-06T14:47:13;2.37;;;2.17;;
5734;SDS011;2892;47.592;7.688;2024-03-06T14:49:41;3.50;;;3.00;;
5734;SDS011;2892;47.592;7.688;2024-03-06T14:52:07;3.00;;;2.20;;
5734;SDS011;2892;47.592;7.688;2024-03-06T14:54:33;3.10;;;2.37;;
5734;SDS011;2892;47.592;7.688;2024-03-06T14:56:58;5.53;;;2.03;;
5734;SDS011;2892;47.592;7.688;2024-03-06T14:59:24;3.50;;;2.40;;
5734;SDS011;2892;47.592;7.688;2024-03-06T15:01:49;3.30;;;2.50;;
5734;SDS011;2892;47.592;7.688;2024-03-06T15:04:15;6.40;;;3.10;;
5734;SDS011;2892;47.592;7.688;2024-03-06T15:06:41;3.10;;;2.13;;
5734;SDS011;2892;47.592;7.688;2024-03-06T15:09:07;2.60;;;2.20;;
5734;SDS011;2892;47.592;7.688;2024-03-06T15:11:35;2.87;;;2.30;;
5734;SDS011;2892;47.592;7.688;2024-03-06T15:14:01;2.53;;;2.30;;
5734;SDS011;2892;47.592;7.688;2024-03-06T15:16:26;2.60;;;2.10;;